createdAt,value
2019-01-16T00:00:14.714Z,8.37
2019-01-16T00:05:46.831Z,8.27
2019-01-16T00:11:04.596Z,7.93
2019-01-16T00:16:19.959Z,7.43
2019-01-16T00:21:55.245Z,7.43
2019-01-16T00:27:17.281Z,4.07
2019-01-16T00:32:29.417Z,6.03
2019-01-16T00:37:59.161Z,7.43
2019-01-16T00:43:40.250Z,8.57
2019-01-16T00:48:57.682Z,9.70
2019-01-16T00:54:21.041Z,6.67
2019-01-16T01:00:02.354Z,9.53
2019-01-16T01:05:18.338Z,8.47
2019-01-16T01:10:32.711Z,9.53
2019-01-16T01:15:54.265Z,10.67
2019-01-16T01:21:20.104Z,8.47
2019-01-16T01:26:41.533Z,11.97
2019-01-16T01:32:03.100Z,10.47
2019-01-16T01:37:24.536Z,8.97
2019-01-16T01:42:46.101Z,11.27
2019-01-16T01:48:08.978Z,8.23
2019-01-16T01:53:32.392Z,8.40
2019-01-16T01:58:49.404Z,6.43
2019-01-16T02:04:11.377Z,6.93
2019-01-16T02:09:32.038Z,7.67
2019-01-16T02:15:10.005Z,6.33
2019-01-16T02:20:49.129Z,6.50
2019-01-16T02:26:06.646Z,6.53
2019-01-16T02:31:27.128Z,6.97
2019-01-16T02:36:53.081Z,7.73
2019-01-16T02:42:19.120Z,6.33
2019-01-16T02:47:38.800Z,5.77
2019-01-16T02:53:02.358Z,6.23
2019-01-16T02:58:20.725Z,5.47
2019-01-16T03:03:43.986Z,7.93
2019-01-16T03:09:07.119Z,6.10
2019-01-16T03:14:33.012Z,7.50
2019-01-16T03:19:55.874Z,6.20
2019-01-16T03:25:27.945Z,6.03
2019-01-16T03:30:51.557Z,6.87
2019-01-16T03:36:18.041Z,8.80
2019-01-16T03:41:28.651Z,6.80
2019-01-16T03:46:40.320Z,7.20
2019-01-16T03:52:03.158Z,8.27
2019-01-16T03:57:26.438Z,6.43
2019-01-16T04:02:52.028Z,5.57
2019-01-16T04:08:13.684Z,6.63
2019-01-16T04:13:36.548Z,5.97
2019-01-16T04:19:11.780Z,6.60
2019-01-16T04:24:33.785Z,8.40
2019-01-16T04:29:55.605Z,6.83
2019-01-16T04:35:12.371Z,5.77
2019-01-16T04:40:33.984Z,4.67
2019-01-16T04:45:51.892Z,8.00
2019-01-16T04:51:14.950Z,6.53
2019-01-16T04:56:36.900Z,4.20
2019-01-16T05:02:07.103Z,6.47
2019-01-16T05:07:42.385Z,5.87
2019-01-16T05:13:05.794Z,5.93
2019-01-16T05:18:27.934Z,4.60
2019-01-16T05:23:40.764Z,5.50
2019-01-16T05:29:02.535Z,5.10
2019-01-16T05:34:24.349Z,4.00
2019-01-16T05:39:53.351Z,3.53
2019-01-16T05:45:16.164Z,3.10
2019-01-16T05:50:31.364Z,4.03
2019-01-16T05:55:52.627Z,4.53
2019-01-16T06:01:10.659Z,5.20
2019-01-16T06:06:32.243Z,4.43
2019-01-16T06:12:10.487Z,4.30
2019-01-16T06:17:32.780Z,6.33
2019-01-16T06:22:54.579Z,3.30
2019-01-16T06:28:20.477Z,2.63
2019-01-16T06:33:47.536Z,6.60
2019-01-16T06:39:14.747Z,4.50
2019-01-16T06:44:36.246Z,5.60
2019-01-16T06:50:01.489Z,3.33
2019-01-16T06:55:17.513Z,3.93
2019-01-16T07:00:43.372Z,3.97
2019-01-16T07:06:05.176Z,2.67
2019-01-16T07:11:31.341Z,4.30
2019-01-16T07:17:03.085Z,4.17
2019-01-16T07:22:20.599Z,4.13
2019-01-16T07:27:31.194Z,3.07
2019-01-16T07:32:54.342Z,3.73
2019-01-16T07:38:06.764Z,3.60
2019-01-16T07:43:29.567Z,4.37
2019-01-16T07:48:56.094Z,3.23
2019-01-16T07:54:28.630Z,3.63
2019-01-16T07:59:46.757Z,2.90
2019-01-16T08:05:18.714Z,4.13
2019-01-16T08:10:53.675Z,5.80
2019-01-16T08:16:16.134Z,4.60
2019-01-16T08:21:50.959Z,8.30
2019-01-16T08:27:15.320Z,5.23
2019-01-16T08:32:28.572Z,2.90
2019-01-16T08:37:48.871Z,3.23
2019-01-16T08:43:05.570Z,2.93
2019-01-16T08:48:25.163Z,3.00
2019-01-16T08:53:50.958Z,5.47
2019-01-16T08:59:05.017Z,2.80
2019-01-16T09:04:26.995Z,2.00
2019-01-16T09:09:49.863Z,1.97
2019-01-16T09:15:12.675Z,3.73
2019-01-16T09:20:40.055Z,3.77
2019-01-16T09:26:00.396Z,3.13
2019-01-16T09:31:29.943Z,4.20
2019-01-16T09:36:44.298Z,4.03
2019-01-16T09:42:05.861Z,3.03
2019-01-16T09:47:30.365Z,2.83
2019-01-16T09:52:53.411Z,3.43
2019-01-16T09:58:14.669Z,3.60
2019-01-16T10:03:48.386Z,3.50
2019-01-16T10:09:11.884Z,3.90
2019-01-16T10:14:35.469Z,3.67
2019-01-16T10:19:49.731Z,3.07
2019-01-16T10:25:17.593Z,4.17
2019-01-16T10:30:36.327Z,2.40
2019-01-16T10:36:02.024Z,1.67
2019-01-16T10:41:34.756Z,1.43
2019-01-16T10:46:57.734Z,2.77
2019-01-16T10:52:30.117Z,1.70
2019-01-16T10:58:23.812Z,1.27
2019-01-16T11:03:50.781Z,3.13
2019-01-16T11:09:20.922Z,3.80
2019-01-16T11:14:47.631Z,3.90
2019-01-16T11:20:18.629Z,3.53
2019-01-16T11:25:56.713Z,2.40
2019-01-16T11:31:11.055Z,1.77
2019-01-16T11:36:39.548Z,2.77
2019-01-16T11:41:54.962Z,2.30
2019-01-16T11:47:15.102Z,3.33
2019-01-16T11:52:32.845Z,2.63
2019-01-16T11:57:51.772Z,3.23
2019-01-16T12:03:14.251Z,3.40
2019-01-16T12:08:35.919Z,1.97
2019-01-16T12:13:59.564Z,3.07
2019-01-16T12:19:25.468Z,3.87
2019-01-16T12:24:44.501Z,3.87
2019-01-16T12:30:06.326Z,2.60
2019-01-16T12:35:38.072Z,3.43
2019-01-16T12:40:59.521Z,2.27
2019-01-16T12:46:18.781Z,2.33
2019-01-16T12:51:36.028Z,1.70
2019-01-16T12:57:11.325Z,5.37
2019-01-16T13:02:32.760Z,3.63
2019-01-16T13:07:46.377Z,2.23
2019-01-16T13:13:02.275Z,2.40
2019-01-16T13:18:15.433Z,2.10
2019-01-16T13:23:37.229Z,3.80
2019-01-16T13:29:03.526Z,5.97
2019-01-16T13:34:25.006Z,4.83
2019-01-16T13:39:46.902Z,5.77
2019-01-16T13:45:03.381Z,5.63
2019-01-16T13:50:26.915Z,6.20
2019-01-16T13:55:59.018Z,5.10
2019-01-16T14:01:20.672Z,6.37
2019-01-16T14:06:41.272Z,3.97
2019-01-16T14:12:00.249Z,4.33
2019-01-16T14:17:22.141Z,4.20
2019-01-16T14:22:44.002Z,4.43
2019-01-16T14:28:03.123Z,5.33
2019-01-16T14:33:29.473Z,4.10
2019-01-16T14:38:50.817Z,4.70
2019-01-16T14:44:02.530Z,3.47
2019-01-16T14:49:34.799Z,4.20
2019-01-16T14:54:50.854Z,5.27
2019-01-16T15:00:13.677Z,7.03
2019-01-16T15:05:26.444Z,5.13
2019-01-16T15:10:51.913Z,3.83
2019-01-16T15:16:11.175Z,5.87
2019-01-16T15:21:33.873Z,11.97
2019-01-16T15:26:56.788Z,8.33
2019-01-16T15:32:23.767Z,7.93
2019-01-16T15:37:46.572Z,8.07
2019-01-16T15:43:15.695Z,6.77
2019-01-16T15:48:53.793Z,4.80
2019-01-16T15:54:23.729Z,5.67
2019-01-16T15:59:29.600Z,6.13
2019-01-16T16:05:03.428Z,5.53
2019-01-16T16:10:30.130Z,11.67
2019-01-16T16:15:42.831Z,6.70
2019-01-16T16:21:13.700Z,7.10
2019-01-16T16:26:32.181Z,8.10
2019-01-16T16:31:46.958Z,9.90
2019-01-16T16:37:25.122Z,9.70
2019-01-16T16:42:44.234Z,12.60
2019-01-16T16:48:09.281Z,13.17
2019-01-16T16:53:22.721Z,10.40
2019-01-16T16:58:44.441Z,12.83
2019-01-16T17:04:06.702Z,12.10
2019-01-16T17:09:26.028Z,9.73
2019-01-16T17:14:52.530Z,11.60
2019-01-16T17:20:07.456Z,13.53
2019-01-16T17:25:22.919Z,10.60
2019-01-16T17:30:40.237Z,13.97
2019-01-16T17:36:09.818Z,9.07
2019-01-16T17:41:29.647Z,14.73
2019-01-16T17:46:53.354Z,19.90
2019-01-16T17:52:16.872Z,18.20
2019-01-16T17:57:33.235Z,19.13
2019-01-16T18:03:04.626Z,26.83
2019-01-16T18:08:26.148Z,15.30
2019-01-16T18:13:45.570Z,16.93
2019-01-16T18:19:03.796Z,26.57
2019-01-16T18:24:35.393Z,28.97
2019-01-16T18:30:07.544Z,23.63
2019-01-16T18:35:48.890Z,20.87
2019-01-16T18:41:01.704Z,20.07
2019-01-16T18:46:33.953Z,22.87
2019-01-16T18:51:47.887Z,20.47
2019-01-16T18:57:09.570Z,24.23
2019-01-16T19:02:32.106Z,26.00
2019-01-16T19:08:13.699Z,21.93
2019-01-16T19:13:35.206Z,21.30
2019-01-16T19:18:47.263Z,20.93
2019-01-16T19:24:09.188Z,22.30
2019-01-16T19:29:36.120Z,19.83
2019-01-16T19:35:00.203Z,24.23
2019-01-16T19:40:42.784Z,22.70
2019-01-16T19:45:53.374Z,23.63
2019-01-16T19:51:19.444Z,23.10
2019-01-16T19:57:00.907Z,23.43
2019-01-16T20:02:29.167Z,24.50
2019-01-16T20:08:07.708Z,44.07
2019-01-16T20:13:30.533Z,46.90
2019-01-16T20:18:48.936Z,19.47
2019-01-16T20:24:17.881Z,77.30
2019-01-16T20:29:38.058Z,21.97
2019-01-16T20:34:57.454Z,20.83
2019-01-16T20:40:13.349Z,19.50
2019-01-16T20:45:35.129Z,20.87
2019-01-16T20:51:13.232Z,22.87
2019-01-16T20:56:34.775Z,19.43
2019-01-16T21:01:56.429Z,21.63
2019-01-16T21:07:23.949Z,18.37
2019-01-16T21:12:46.731Z,21.50
2019-01-16T21:18:20.567Z,20.20
2019-01-16T21:23:37.557Z,17.97
2019-01-16T21:29:10.564Z,21.13
2019-01-16T21:34:30.021Z,22.03
2019-01-16T21:39:52.049Z,19.50
2019-01-16T21:45:33.811Z,17.27
2019-01-16T21:50:55.796Z,17.77
2019-01-16T21:56:10.830Z,17.53
2019-01-16T22:01:28.283Z,17.03
2019-01-16T22:06:43.062Z,17.93
2019-01-16T22:12:19.549Z,18.07
2019-01-16T22:17:38.252Z,19.30
2019-01-16T22:22:53.247Z,23.13
2019-01-16T22:28:07.689Z,20.40
2019-01-16T22:33:20.411Z,17.13
2019-01-16T22:38:46.274Z,19.07
2019-01-16T22:44:14.976Z,18.87
2019-01-16T22:49:37.391Z,17.10
2019-01-16T22:55:15.468Z,17.40
2019-01-16T23:00:53.682Z,17.93
2019-01-16T23:06:06.939Z,18.23
2019-01-16T23:11:28.423Z,19.83
2019-01-16T23:16:48.900Z,19.40
2019-01-16T23:22:04.723Z,17.40
2019-01-16T23:27:21.140Z,17.03
2019-01-16T23:32:45.775Z,20.67
2019-01-16T23:38:00.863Z,18.37
2019-01-16T23:43:22.533Z,18.17
2019-01-16T23:48:50.388Z,25.40
2019-01-16T23:54:19.703Z,22.60
2019-01-16T23:59:43.389Z,19.80
